createdAt,value
2023-05-25T00:01:01.139Z,95.18
2023-05-25T00:01:50.018Z,95.08
2023-05-25T00:02:49.128Z,95.08
2023-05-25T00:03:49.033Z,95.08
2023-05-25T00:04:48.907Z,94.98
2023-05-25T00:05:48.889Z,95.08
2023-05-25T00:06:48.884Z,95.28
2023-05-25T00:07:48.856Z,95.39
2023-05-25T00:08:48.857Z,95.18
2023-05-25T00:09:48.861Z,94.71
2023-05-25T00:10:48.853Z,94.40
2023-05-25T00:11:48.816Z,94.60
2023-05-25T00:12:48.865Z,94.81
2023-05-25T00:13:48.795Z,95.12
2023-05-25T00:14:48.804Z,95.43
2023-05-25T00:15:48.771Z,95.33
2023-05-25T00:16:48.816Z,95.23
2023-05-25T00:17:48.842Z,95.02
2023-05-25T00:18:48.799Z,94.81
2023-05-25T00:19:48.760Z,94.92
2023-05-25T00:20:48.730Z,95.02
2023-05-25T00:21:48.924Z,95.17
2023-05-25T00:22:48.697Z,94.96
2023-05-25T00:23:48.710Z,94.85
2023-05-25T00:24:48.683Z,95.17
2023-05-25T00:25:48.676Z,95.33
2023-05-25T00:26:48.653Z,95.68
2023-05-25T00:27:48.649Z,95.89
2023-05-25T00:28:48.656Z,95.99
2023-05-25T00:29:48.632Z,96.20
2023-05-25T00:30:48.668Z,96.09
2023-05-25T00:31:48.599Z,95.99
2023-05-25T00:32:48.625Z,95.89
2023-05-25T00:33:48.586Z,95.78
2023-05-25T00:34:48.582Z,95.89
2023-05-25T00:35:48.563Z,95.99
2023-05-25T00:36:48.546Z,95.99
2023-05-25T00:37:48.550Z,96.09
2023-05-25T00:38:48.524Z,96.20
2023-05-25T00:39:48.508Z,96.41
2023-05-25T00:40:48.495Z,96.20
2023-05-25T00:41:48.513Z,96.20
2023-05-25T00:42:48.509Z,96.30
2023-05-25T00:43:48.475Z,96.61
2023-05-25T00:44:48.456Z,96.71
2023-05-25T00:45:48.493Z,96.50
2023-05-25T00:46:48.527Z,96.50
2023-05-25T00:47:48.483Z,96.71
2023-05-25T00:48:48.406Z,96.71
2023-05-25T00:49:48.406Z,96.92
2023-05-25T00:50:48.409Z,97.02
2023-05-25T00:51:48.389Z,97.13
2023-05-25T00:52:48.392Z,97.33
2023-05-25T00:53:48.364Z,97.43
2023-05-25T00:54:48.378Z,97.33
2023-05-25T00:55:48.357Z,97.33
2023-05-25T00:56:48.332Z,97.43
2023-05-25T00:57:48.315Z,97.43
2023-05-25T00:58:48.302Z,97.43
2023-05-25T00:59:48.331Z,97.68
2023-05-25T01:00:48.294Z,97.58
2023-05-25T01:01:48.347Z,97.48
2023-05-25T01:02:48.417Z,97.27
2023-05-25T01:03:48.292Z,97.27
2023-05-25T01:04:48.241Z,97.06
2023-05-25T01:05:48.251Z,96.86
2023-05-25T01:06:48.244Z,96.96
2023-05-25T01:07:48.207Z,97.06
2023-05-25T01:08:48.196Z,97.06
2023-05-25T01:09:48.180Z,97.38
2023-05-25T01:10:48.180Z,97.27
2023-05-25T01:11:48.161Z,97.06
2023-05-25T01:12:48.151Z,97.06
2023-05-25T01:13:48.139Z,97.38
2023-05-25T01:14:48.144Z,97.48
2023-05-25T01:15:48.131Z,97.78
2023-05-25T01:16:48.148Z,97.68
2023-05-25T01:17:48.131Z,97.78
2023-05-25T01:18:48.099Z,97.58
2023-05-25T01:20:01.669Z,97.68
2023-05-25T01:20:49.076Z,97.78
2023-05-25T01:21:48.057Z,97.78
2023-05-25T01:22:48.040Z,97.68
2023-05-25T01:23:48.029Z,97.78
2023-05-25T01:24:48.019Z,98.10
2023-05-25T01:25:48.008Z,98.36
2023-05-25T01:26:47.992Z,98.10
2023-05-25T01:27:48.041Z,98.15
2023-05-25T01:28:48.035Z,98.57
2023-05-25T01:29:47.998Z,98.67
2023-05-25T01:30:47.947Z,98.77
2023-05-25T01:31:48.008Z,98.67
2023-05-25T01:32:47.933Z,98.41
2023-05-25T01:33:47.929Z,98.41
2023-05-25T01:34:47.906Z,98.10
2023-05-25T01:35:47.910Z,97.99
2023-05-25T01:36:47.878Z,97.78
2023-05-25T01:37:47.920Z,97.68
2023-05-25T01:38:47.876Z,97.48
2023-05-25T01:39:47.857Z,97.38
2023-05-25T01:40:47.840Z,97.27
2023-05-25T01:41:47.845Z,97.06
2023-05-25T01:42:47.833Z,97.11
2023-05-25T01:43:47.820Z,97.21
2023-05-25T01:44:47.792Z,97.01
2023-05-25T01:45:47.828Z,97.21
2023-05-25T01:46:47.777Z,97.31
2023-05-25T01:47:47.807Z,97.42
2023-05-25T01:48:47.750Z,97.42
2023-05-25T01:49:47.757Z,97.63
2023-05-25T01:50:47.726Z,97.73
2023-05-25T01:51:47.762Z,97.52
2023-05-25T01:52:47.716Z,97.52
2023-05-25T01:53:47.696Z,97.42
2023-05-25T01:54:47.678Z,97.42
2023-05-25T01:55:47.675Z,97.42
2023-05-25T01:56:47.672Z,97.31
2023-05-25T01:57:47.650Z,97.42
2023-05-25T01:58:47.652Z,97.31
2023-05-25T01:59:47.636Z,97.31
2023-05-25T02:00:47.612Z,97.31
2023-05-25T02:01:48.445Z,97.31
2023-05-25T02:02:47.623Z,97.36
2023-05-25T02:03:47.588Z,97.47
2023-05-25T02:04:47.711Z,97.47
2023-05-25T02:05:47.604Z,97.56
2023-05-25T02:06:47.558Z,97.77
2023-05-25T02:07:47.567Z,97.77
2023-05-25T02:08:47.526Z,97.56
2023-05-25T02:09:47.521Z,97.67
2023-05-25T02:10:47.517Z,97.77
2023-05-25T02:11:47.507Z,97.67
2023-05-25T02:12:47.503Z,97.77
2023-05-25T02:13:47.487Z,97.82
2023-05-25T02:14:47.476Z,97.82
2023-05-25T02:15:47.624Z,97.72
2023-05-25T02:16:47.445Z,97.82
2023-05-25T02:17:47.468Z,97.82
2023-05-25T02:18:47.420Z,97.82
2023-05-25T02:19:47.453Z,97.92
2023-05-25T02:20:47.425Z,97.92
2023-05-25T02:21:47.389Z,98.02
2023-05-25T02:22:47.380Z,98.23
2023-05-25T02:23:47.368Z,98.23
2023-05-25T02:24:47.360Z,98.23
2023-05-25T02:25:47.350Z,98.13
2023-05-25T02:26:47.351Z,98.13
2023-05-25T02:27:47.327Z,98.13
2023-05-25T02:28:47.310Z,98.23
2023-05-25T02:29:47.316Z,98.33
2023-05-25T02:30:47.385Z,98.44
2023-05-25T02:31:47.352Z,99.32
2023-05-25T02:32:47.327Z,99.63
2023-05-25T02:33:47.279Z,99.73
2023-05-25T02:34:47.269Z,99.78
2023-05-25T02:35:47.243Z,99.68
2023-05-25T02:36:47.248Z,99.68
2023-05-25T02:37:48.448Z,99.78
2023-05-25T02:38:47.233Z,99.88
2023-05-25T02:39:47.201Z,99.99
2023-05-25T02:40:47.180Z,99.99
2023-05-25T02:41:47.182Z,99.88
2023-05-25T02:42:47.161Z,99.88
2023-05-25T02:43:47.168Z,99.88
2023-05-25T02:44:47.142Z,99.82
2023-05-25T02:45:47.136Z,99.72
2023-05-25T02:46:47.130Z,99.72
2023-05-25T02:47:47.190Z,99.62
2023-05-25T02:48:47.113Z,99.41
2023-05-25T02:49:47.199Z,99.31
2023-05-25T02:50:47.096Z,99.41
2023-05-25T02:51:47.074Z,99.41
2023-05-25T02:52:47.060Z,99.41
2023-05-25T02:53:47.061Z,99.52
2023-05-25T02:54:47.024Z,99.62
2023-05-25T02:55:47.038Z,99.82
2023-05-25T02:56:47.015Z,99.72
2023-05-25T02:57:47.009Z,99.77
2023-05-25T02:58:46.996Z,99.66
2023-05-25T02:59:46.987Z,99.56
2023-05-25T03:00:47.071Z,99.46
2023-05-25T03:01:46.956Z,99.35
2023-05-25T03:02:47.016Z,99.25
2023-05-25T03:03:46.983Z,99.15
2023-05-25T03:04:46.919Z,99.05
2023-05-25T03:05:46.918Z,99.05
2023-05-25T03:06:46.910Z,99.05
2023-05-25T03:07:46.950Z,99.05
2023-05-25T03:08:46.878Z,99.05
2023-05-25T03:09:46.874Z,98.94
2023-05-25T03:10:46.861Z,99.46
2023-05-25T03:11:46.864Z,99.46
2023-05-25T03:12:46.830Z,99.46
2023-05-25T03:13:46.834Z,99.35
2023-05-25T03:14:46.801Z,99.25
2023-05-25T03:15:46.808Z,99.09
2023-05-25T03:16:46.877Z,99.09
2023-05-25T03:17:46.844Z,99.09
2023-05-25T03:18:46.776Z,98.99
2023-05-25T03:19:46.769Z,98.99
2023-05-25T03:20:46.770Z,98.88
2023-05-25T03:21:46.756Z,98.88
2023-05-25T03:22:46.734Z,98.78
2023-05-25T03:23:46.716Z,98.88
2023-05-25T03:24:46.701Z,98.99
2023-05-25T03:25:46.841Z,98.99
2023-05-25T03:26:46.759Z,99.09
2023-05-25T03:27:46.662Z,99.09
2023-05-25T03:28:46.672Z,99.19
2023-05-25T03:29:46.746Z,99.19
2023-05-25T03:30:46.664Z,99.09
2023-05-25T03:31:46.774Z,99.15
2023-05-25T03:32:46.651Z,99.15
2023-05-25T03:33:46.687Z,99.25
2023-05-25T03:34:46.616Z,99.46
2023-05-25T03:35:46.760Z,99.46
2023-05-25T03:36:46.573Z,99.46
2023-05-25T03:37:46.592Z,99.56
2023-05-25T03:38:46.552Z,99.46
2023-05-25T03:39:46.584Z,99.56
2023-05-25T03:40:46.539Z,99.71
2023-05-25T03:41:46.538Z,99.82
2023-05-25T03:42:46.508Z,99.71
2023-05-25T03:43:46.510Z,99.71
2023-05-25T03:44:46.512Z,99.61
2023-05-25T03:45:46.585Z,99.61
2023-05-25T03:46:46.564Z,99.51
2023-05-25T03:47:46.490Z,99.61
2023-05-25T03:48:46.488Z,99.65
2023-05-25T03:49:46.438Z,99.65
2023-05-25T03:50:46.424Z,99.76
2023-05-25T03:51:46.430Z,99.76
2023-05-25T03:52:46.411Z,99.76
2023-05-25T03:53:46.426Z,99.65
2023-05-25T03:54:46.375Z,99.55
2023-05-25T03:55:46.523Z,99.61
2023-05-25T03:56:46.407Z,99.99
2023-05-25T03:57:46.418Z,99.99
2023-05-25T03:58:46.372Z,99.99
2023-05-25T03:59:46.328Z,99.99
2023-05-25T04:00:46.310Z,99.99
2023-05-25T04:01:46.308Z,99.99
2023-05-25T04:02:46.383Z,99.99
2023-05-25T04:03:46.448Z,99.99
2023-05-25T04:04:46.359Z,99.99
2023-05-25T04:05:46.492Z,99.99
2023-05-25T04:06:46.242Z,99.99
2023-05-25T04:07:46.267Z,99.99
2023-05-25T04:08:46.226Z,99.99
2023-05-25T04:09:46.235Z,99.99
2023-05-25T04:10:46.231Z,99.99
2023-05-25T04:11:46.208Z,99.99
2023-05-25T04:12:46.201Z,99.99
2023-05-25T04:13:46.182Z,99.99
2023-05-25T04:14:46.168Z,99.99
2023-05-25T04:15:46.397Z,99.99
2023-05-25T04:16:46.350Z,99.99
2023-05-25T04:17:46.160Z,99.99
2023-05-25T04:18:46.112Z,99.99
2023-05-25T04:19:46.110Z,99.99
2023-05-25T04:20:46.096Z,99.99
2023-05-25T04:21:46.110Z,99.99
2023-05-25T04:22:46.098Z,99.99
2023-05-25T04:23:46.091Z,99.99
2023-05-25T04:24:46.073Z,99.99
2023-05-25T04:25:46.266Z,99.99
2023-05-25T04:26:46.052Z,99.99
2023-05-25T04:27:46.023Z,99.99
2023-05-25T04:28:45.999Z,99.99
2023-05-25T04:29:46.022Z,99.99
2023-05-25T04:30:45.992Z,99.99
2023-05-25T04:31:46.105Z,99.99
2023-05-25T04:32:46.019Z,99.99
2023-05-25T04:33:46.002Z,99.99
2023-05-25T04:34:45.971Z,99.99
2023-05-25T04:35:46.216Z,99.99
2023-05-25T04:36:45.917Z,99.99
2023-05-25T04:37:45.909Z,99.99
2023-05-25T04:38:45.910Z,99.99
2023-05-25T04:39:45.986Z,99.99
2023-05-25T04:40:45.906Z,99.99
2023-05-25T04:41:45.936Z,99.99
2023-05-25T04:42:45.867Z,99.99
2023-05-25T04:43:56.831Z,99.99
2023-05-25T04:44:46.865Z,99.99
2023-05-25T04:45:46.318Z,99.99
2023-05-25T04:46:45.818Z,99.99
2023-05-25T04:47:45.916Z,99.99
2023-05-25T04:48:45.780Z,99.94
2023-05-25T04:49:45.793Z,99.73
2023-05-25T04:50:45.768Z,99.63
2023-05-25T04:51:45.755Z,99.52
2023-05-25T04:52:45.785Z,99.52
2023-05-25T04:53:46.040Z,99.48
2023-05-25T04:54:45.719Z,99.58
2023-05-25T04:55:45.936Z,99.58
2023-05-25T04:56:45.707Z,99.79
2023-05-25T04:57:45.695Z,99.90
2023-05-25T04:58:45.691Z,99.90
2023-05-25T04:59:45.676Z,99.69
2023-05-25T05:00:45.958Z,99.64
2023-05-25T05:01:45.708Z,99.74
2023-05-25T05:02:45.705Z,99.64
2023-05-25T05:03:45.668Z,99.54
2023-05-25T05:04:45.609Z,99.49
2023-05-25T05:05:45.821Z,99.43
2023-05-25T05:06:45.589Z,99.33
2023-05-25T05:07:45.599Z,99.02
2023-05-25T05:08:45.593Z,98.92
2023-05-25T05:09:45.562Z,98.71
2023-05-25T05:10:45.784Z,98.71
2023-05-25T05:11:45.545Z,98.71
2023-05-25T05:12:45.559Z,98.71
2023-05-25T05:13:45.544Z,98.67
2023-05-25T05:14:45.517Z,98.57
2023-05-25T05:15:45.704Z,98.67
2023-05-25T05:16:45.494Z,98.97
2023-05-25T05:17:45.539Z,98.97
2023-05-25T05:18:45.454Z,98.67
2023-05-25T05:19:45.469Z,98.52
2023-05-25T05:20:45.528Z,98.42
2023-05-25T05:21:45.449Z,98.62
2023-05-25T05:22:45.421Z,98.42
2023-05-25T05:23:45.419Z,98.16
2023-05-25T05:24:45.385Z,98.06
2023-05-25T05:25:45.623Z,97.81
2023-05-25T05:26:57.439Z,97.81
2023-05-25T05:27:46.365Z,97.61
2023-05-25T05:28:45.345Z,97.56
2023-05-25T05:29:45.343Z,97.25
2023-05-25T05:30:45.326Z,97.25
2023-05-25T05:31:45.387Z,97.05
2023-05-25T05:32:46.704Z,97.00
2023-05-25T05:33:45.355Z,96.80
2023-05-25T05:34:45.283Z,96.80
2023-05-25T05:35:45.440Z,96.65
2023-05-25T05:36:55.822Z,96.65
2023-05-25T05:37:46.263Z,96.55
2023-05-25T05:38:45.247Z,96.34
2023-05-25T05:39:45.236Z,95.93
2023-05-25T05:40:45.230Z,95.47
2023-05-25T05:41:45.204Z,95.27
2023-05-25T05:42:45.192Z,94.85
2023-05-25T05:43:45.183Z,94.65
2023-05-25T05:44:45.184Z,94.55
2023-05-25T05:45:45.513Z,94.55
2023-05-25T05:46:45.221Z,94.71
2023-05-25T05:47:45.197Z,94.61
2023-05-25T05:48:45.151Z,94.26
2023-05-25T05:49:45.148Z,93.64
2023-05-25T05:50:45.139Z,93.44
2023-05-25T05:51:45.102Z,93.54
2023-05-25T05:52:45.083Z,93.23
2023-05-25T05:53:45.096Z,93.39
2023-05-25T05:54:45.077Z,92.98
2023-05-25T05:55:46.038Z,92.57
2023-05-25T05:56:45.045Z,92.47
2023-05-25T05:57:45.032Z,92.57
2023-05-25T05:58:45.022Z,93.25
2023-05-25T05:59:45.028Z,93.45
2023-05-25T06:00:44.996Z,92.94
2023-05-25T06:01:45.026Z,92.90
2023-05-25T06:02:45.067Z,93.30
2023-05-25T06:03:44.977Z,93.57
2023-05-25T06:04:44.964Z,94.18
2023-05-25T06:05:45.255Z,93.98
2023-05-25T06:06:44.930Z,91.31
2023-05-25T06:07:44.921Z,90.30
2023-05-25T06:08:45.026Z,90.30
2023-05-25T06:09:44.901Z,90.19
2023-05-25T06:10:45.055Z,90.50
2023-05-25T06:11:44.878Z,89.68
2023-05-25T06:12:44.864Z,89.47
2023-05-25T06:13:46.480Z,89.53
2023-05-25T06:14:44.843Z,89.53
2023-05-25T06:15:45.099Z,89.33
2023-05-25T06:16:44.882Z,88.92
2023-05-25T06:17:44.842Z,88.82
2023-05-25T06:18:44.813Z,88.82
2023-05-25T06:19:44.789Z,88.78
2023-05-25T06:20:44.870Z,89.39
2023-05-25T06:21:44.760Z,90.06
2023-05-25T06:22:44.770Z,90.53
2023-05-25T06:23:44.741Z,90.64
2023-05-25T06:24:44.753Z,90.59
2023-05-25T06:25:44.966Z,89.67
2023-05-25T06:26:44.709Z,88.31
2023-05-25T06:27:44.708Z,89.63
2023-05-25T06:28:44.704Z,89.39
2023-05-25T06:29:44.665Z,88.63
2023-05-25T06:30:44.659Z,89.14
2023-05-25T06:31:44.770Z,87.98
2023-05-25T06:32:44.714Z,87.53
2023-05-25T06:33:44.626Z,87.02
2023-05-25T06:34:44.641Z,86.68
2023-05-25T06:35:44.801Z,85.55
2023-05-25T06:36:44.602Z,84.19
2023-05-25T06:37:44.609Z,81.71
2023-05-25T06:38:44.583Z,80.29
2023-05-25T06:39:44.559Z,80.18
2023-05-25T06:40:44.590Z,80.49
2023-05-25T06:41:44.573Z,80.49
2023-05-25T06:42:44.525Z,79.88
2023-05-25T06:43:44.552Z,79.98
2023-05-25T06:44:44.518Z,80.76
2023-05-25T06:45:44.752Z,81.26
2023-05-25T06:46:44.534Z,81.43
2023-05-25T06:47:44.510Z,80.21
2023-05-25T06:48:44.475Z,78.75
2023-05-25T06:49:44.470Z,77.83
2023-05-25T06:50:44.463Z,78.30
2023-05-25T06:51:44.428Z,78.75
2023-05-25T06:52:44.438Z,78.64
2023-05-25T06:53:44.532Z,77.73
2023-05-25T06:54:44.408Z,77.56
2023-05-25T06:55:44.577Z,78.38
2023-05-25T06:56:44.386Z,79.80
2023-05-25T06:57:44.383Z,79.86
2023-05-25T06:58:44.352Z,79.22
2023-05-25T06:59:44.368Z,76.98
2023-05-25T07:00:46.028Z,76.14
2023-05-25T07:01:44.347Z,76.20
2023-05-25T07:02:44.368Z,74.48
2023-05-25T07:03:44.485Z,73.93
2023-05-25T07:04:44.388Z,74.54
2023-05-25T07:05:44.505Z,74.54
2023-05-25T07:06:44.267Z,73.97
2023-05-25T07:07:44.261Z,75.29
2023-05-25T07:08:44.282Z,75.70
2023-05-25T07:09:44.240Z,74.17
2023-05-25T07:10:44.229Z,73.26
2023-05-25T07:11:44.207Z,74.48
2023-05-25T07:12:44.226Z,75.02
2023-05-25T07:13:44.216Z,75.43
2023-05-25T07:14:44.182Z,75.90
2023-05-25T07:15:44.390Z,75.46
2023-05-25T07:16:44.255Z,74.61
2023-05-25T07:17:44.208Z,73.56
2023-05-25T07:18:44.147Z,72.48
2023-05-25T07:19:44.153Z,72.78
2023-05-25T07:20:44.422Z,73.05
2023-05-25T07:21:44.116Z,72.68
2023-05-25T07:22:44.149Z,72.58
2023-05-25T07:23:44.102Z,73.02
2023-05-25T07:24:44.080Z,73.49
2023-05-25T07:25:44.226Z,73.29
2023-05-25T07:26:44.051Z,73.29
2023-05-25T07:27:44.043Z,73.16
2023-05-25T07:28:44.031Z,73.25
2023-05-25T07:29:44.016Z,71.94
2023-05-25T07:30:44.006Z,71.44
2023-05-25T07:31:44.319Z,71.91
2023-05-25T07:32:44.423Z,72.21
2023-05-25T07:33:44.019Z,71.30
2023-05-25T07:34:44.035Z,70.79
2023-05-25T07:35:44.196Z,71.80
2023-05-25T07:36:43.957Z,71.50
2023-05-25T07:37:43.938Z,71.47
2023-05-25T07:38:43.923Z,70.86
2023-05-25T07:39:43.904Z,70.32
2023-05-25T07:40:43.901Z,69.89
2023-05-25T07:41:43.912Z,70.25
2023-05-25T07:42:43.879Z,70.25
2023-05-25T07:43:43.874Z,69.62
2023-05-25T07:44:43.860Z,69.48
2023-05-25T07:45:44.084Z,68.13
2023-05-25T07:46:43.879Z,67.73
2023-05-25T07:47:43.866Z,67.36
2023-05-25T07:48:43.813Z,67.06
2023-05-25T07:49:43.824Z,68.00
2023-05-25T07:50:43.820Z,68.54
2023-05-25T07:51:43.786Z,69.14
2023-05-25T07:52:43.835Z,67.43
2023-05-25T07:53:43.778Z,67.80
2023-05-25T07:54:43.756Z,69.08
2023-05-25T07:55:44.081Z,67.46
2023-05-25T07:56:43.740Z,67.09
2023-05-25T07:57:43.723Z,67.19
2023-05-25T07:58:43.717Z,67.02
2023-05-25T07:59:43.747Z,67.35
2023-05-25T08:00:43.710Z,68.16
2023-05-25T08:01:43.743Z,68.06
2023-05-25T08:02:43.817Z,67.15
2023-05-25T08:03:49.752Z,68.16
2023-05-25T08:04:44.781Z,66.31
2023-05-25T08:05:43.920Z,67.60
2023-05-25T08:06:43.624Z,67.49
2023-05-25T08:07:43.618Z,67.19
2023-05-25T08:08:43.640Z,67.49
2023-05-25T08:09:43.622Z,67.73
2023-05-25T08:10:43.582Z,66.25
2023-05-25T08:11:43.580Z,66.78
2023-05-25T08:12:49.513Z,66.65
2023-05-25T08:13:44.700Z,67.46
2023-05-25T08:14:43.598Z,67.60
2023-05-25T08:15:43.739Z,66.99
2023-05-25T08:16:43.552Z,67.26
2023-05-25T08:17:43.549Z,67.16
2023-05-25T08:18:43.502Z,66.35
2023-05-25T08:19:43.492Z,67.26
2023-05-25T08:20:43.623Z,67.46
2023-05-25T08:21:43.458Z,67.16
2023-05-25T08:22:43.461Z,66.96
2023-05-25T08:23:43.450Z,67.36
2023-05-25T08:24:43.449Z,66.55
2023-05-25T08:25:43.779Z,66.25
2023-05-25T08:26:54.422Z,66.12
2023-05-25T08:27:44.415Z,66.59
2023-05-25T08:28:43.379Z,66.08
2023-05-25T08:29:43.428Z,65.88
2023-05-25T08:30:43.405Z,64.78
2023-05-25T08:31:43.376Z,66.08
2023-05-25T08:32:43.422Z,66.02
2023-05-25T08:33:43.413Z,65.12
2023-05-25T08:34:43.330Z,64.11
2023-05-25T08:35:43.553Z,65.29
2023-05-25T08:36:43.296Z,64.21
2023-05-25T08:37:43.324Z,62.90
2023-05-25T08:38:43.346Z,64.21
2023-05-25T08:39:43.305Z,64.11
2023-05-25T08:40:43.287Z,64.51
2023-05-25T08:41:43.315Z,64.44
2023-05-25T08:42:43.230Z,64.24
2023-05-25T08:43:43.227Z,64.58
2023-05-25T08:44:43.218Z,65.18
2023-05-25T08:45:46.838Z,65.58
2023-05-25T08:46:43.196Z,65.35
2023-05-25T08:47:43.210Z,66.63
2023-05-25T08:48:43.313Z,64.78
2023-05-25T08:49:43.302Z,63.87
2023-05-25T08:50:43.253Z,63.57
2023-05-25T08:51:43.148Z,62.90
2023-05-25T08:52:43.119Z,63.50
2023-05-25T08:53:43.114Z,64.81
2023-05-25T08:54:43.099Z,63.37
2023-05-25T08:55:43.426Z,63.30
2023-05-25T08:56:43.124Z,63.40
2023-05-25T08:57:43.073Z,64.31
2023-05-25T08:58:43.067Z,65.12
2023-05-25T08:59:43.091Z,64.58
2023-05-25T09:00:43.326Z,64.48
2023-05-25T09:01:43.101Z,63.50
2023-05-25T09:02:43.095Z,63.90
2023-05-25T09:03:43.144Z,64.84
2023-05-25T09:04:43.012Z,63.90
2023-05-25T09:05:43.240Z,63.60
2023-05-25T09:06:44.048Z,63.90
2023-05-25T09:07:42.974Z,64.14
2023-05-25T09:08:42.945Z,64.01
2023-05-25T09:09:42.976Z,64.11
2023-05-25T09:10:42.948Z,64.11
2023-05-25T09:11:44.966Z,64.92
2023-05-25T09:12:42.908Z,65.01
2023-05-25T09:13:42.922Z,64.64
2023-05-25T09:14:42.909Z,65.79
2023-05-25T09:15:43.095Z,65.09
2023-05-25T09:16:42.928Z,65.16
2023-05-25T09:17:42.966Z,64.72
2023-05-25T09:18:42.865Z,63.45
2023-05-25T09:19:42.845Z,63.85
2023-05-25T09:20:45.214Z,62.95
2023-05-25T09:21:42.823Z,61.27
2023-05-25T09:22:42.820Z,62.27
2023-05-25T09:23:42.821Z,61.74
2023-05-25T09:24:42.789Z,61.51
2023-05-25T09:25:42.868Z,61.08
2023-05-25T09:26:42.786Z,60.58
2023-05-25T09:27:42.774Z,60.71
2023-05-25T09:28:42.765Z,62.49
2023-05-25T09:29:42.750Z,60.31
2023-05-25T09:30:42.850Z,60.47
2023-05-25T09:31:42.829Z,61.80
2023-05-25T09:32:42.778Z,61.43
2023-05-25T09:33:42.721Z,62.94
2023-05-25T09:34:42.706Z,63.27
2023-05-25T09:35:42.687Z,63.17
2023-05-25T09:36:42.736Z,64.11
2023-05-25T09:37:42.829Z,63.93
2023-05-25T09:38:43.036Z,64.64
2023-05-25T09:39:42.726Z,64.98
2023-05-25T09:40:42.891Z,64.58
2023-05-25T09:41:42.628Z,64.54
2023-05-25T09:42:42.620Z,64.34
2023-05-25T09:43:48.927Z,65.55
2023-05-25T09:44:43.588Z,65.72
2023-05-25T09:45:42.609Z,64.41
2023-05-25T09:46:42.704Z,63.20
2023-05-25T09:47:42.661Z,64.31
2023-05-25T09:48:42.565Z,63.60
2023-05-25T09:49:42.547Z,64.31
2023-05-25T09:50:42.662Z,62.60
2023-05-25T09:51:42.526Z,63.67
2023-05-25T09:52:42.532Z,63.47
2023-05-25T09:53:42.496Z,63.78
2023-05-25T09:54:42.486Z,63.17
2023-05-25T09:55:53.293Z,62.66
2023-05-25T09:56:43.474Z,63.65
2023-05-25T09:57:42.444Z,62.61
2023-05-25T09:58:42.446Z,63.79
2023-05-25T09:59:42.436Z,62.15
2023-05-25T10:00:42.531Z,62.02
2023-05-25T10:01:44.013Z,61.61
2023-05-25T10:02:42.440Z,60.47
2023-05-25T10:03:43.792Z,61.07
2023-05-25T10:04:43.435Z,62.51
2023-05-25T10:05:42.403Z,63.34
2023-05-25T10:06:42.351Z,61.96
2023-05-25T10:07:42.350Z,61.49
2023-05-25T10:08:42.382Z,61.99
2023-05-25T10:09:42.404Z,62.29
2023-05-25T10:10:42.566Z,63.10
2023-05-25T10:11:42.291Z,63.75
2023-05-25T10:12:42.293Z,61.70
2023-05-25T10:13:42.283Z,61.87
2023-05-25T10:14:42.295Z,61.04
2023-05-25T10:15:42.320Z,59.80
2023-05-25T10:16:42.261Z,60.51
2023-05-25T10:17:42.335Z,59.60
2023-05-25T10:18:42.231Z,59.38
2023-05-25T10:19:42.226Z,58.37
2023-05-25T10:20:42.259Z,59.05
2023-05-25T10:21:42.191Z,58.84
2023-05-25T10:22:42.192Z,58.51
2023-05-25T10:23:42.287Z,58.31
2023-05-25T10:24:42.178Z,58.24
2023-05-25T10:25:42.158Z,59.17
2023-05-25T10:26:42.152Z,59.20
2023-05-25T10:27:42.135Z,60.06
2023-05-25T10:28:42.149Z,61.27
2023-05-25T10:29:42.121Z,61.17
2023-05-25T10:30:42.114Z,61.40
2023-05-25T10:31:42.163Z,60.60
2023-05-25T10:32:42.124Z,59.66
2023-05-25T10:33:42.076Z,59.60
2023-05-25T10:34:42.067Z,59.38
2023-05-25T10:35:56.273Z,60.52
2023-05-25T10:36:43.037Z,58.22
2023-05-25T10:37:42.021Z,58.42
2023-05-25T10:38:42.100Z,58.54
2023-05-25T10:39:42.002Z,59.65
2023-05-25T10:40:42.059Z,58.87
2023-05-25T10:41:41.989Z,58.17
2023-05-25T10:42:41.982Z,59.17
2023-05-25T10:43:41.989Z,57.24
2023-05-25T10:44:41.974Z,58.31
2023-05-25T10:45:41.953Z,56.46
2023-05-25T10:46:41.983Z,57.70
2023-05-25T10:47:41.997Z,59.10
2023-05-25T10:48:41.927Z,57.77
2023-05-25T10:49:41.908Z,58.14
2023-05-25T10:50:41.906Z,57.24
2023-05-25T10:51:41.891Z,57.21
2023-05-25T10:52:41.907Z,57.28
2023-05-25T10:53:41.868Z,56.38
2023-05-25T10:54:41.852Z,55.18
2023-05-25T10:55:41.894Z,56.76
2023-05-25T10:56:42.260Z,56.05
2023-05-25T10:57:41.814Z,54.95
2023-05-25T10:58:41.822Z,55.63
2023-05-25T10:59:41.830Z,55.85
2023-05-25T11:00:41.939Z,55.88
2023-05-25T11:01:41.881Z,56.61
2023-05-25T11:02:41.805Z,57.44
2023-05-25T11:03:41.808Z,58.44
2023-05-25T11:04:41.883Z,57.57
2023-05-25T11:05:41.746Z,57.46
2023-05-25T11:06:41.761Z,58.17
2023-05-25T11:07:41.735Z,58.77
2023-05-25T11:08:41.755Z,57.46
2023-05-25T11:09:41.696Z,58.75
2023-05-25T11:10:41.781Z,57.54
2023-05-25T11:11:41.681Z,56.43
2023-05-25T11:12:41.674Z,56.41
2023-05-25T11:13:41.695Z,55.71
2023-05-25T11:14:41.652Z,55.98
2023-05-25T11:15:41.672Z,56.56
2023-05-25T11:16:41.700Z,56.93
2023-05-25T11:17:41.647Z,54.82
2023-05-25T11:18:41.629Z,54.22
2023-05-25T11:19:41.635Z,54.93
2023-05-25T11:20:41.777Z,55.15
2023-05-25T11:21:41.581Z,55.80
2023-05-25T11:22:41.569Z,56.13
2023-05-25T11:23:41.565Z,56.46
2023-05-25T11:24:41.554Z,56.79
2023-05-25T11:25:41.599Z,57.59
2023-05-25T11:26:41.552Z,57.22
2023-05-25T11:27:41.514Z,57.29
2023-05-25T11:28:41.518Z,56.56
2023-05-25T11:29:41.512Z,56.81
2023-05-25T11:30:41.521Z,55.28
2023-05-25T11:31:43.727Z,55.65
2023-05-25T11:32:41.499Z,54.62
2023-05-25T11:33:41.452Z,54.93
2023-05-25T11:34:41.581Z,55.60
2023-05-25T11:35:41.482Z,55.57
2023-05-25T11:36:41.452Z,53.80
2023-05-25T11:37:41.473Z,53.85
2023-05-25T11:38:45.247Z,56.56
2023-05-25T11:39:42.397Z,56.63
2023-05-25T11:40:41.418Z,55.63
2023-05-25T11:41:41.381Z,57.15
2023-05-25T11:42:41.373Z,57.89
2023-05-25T11:43:41.414Z,57.74
2023-05-25T11:44:41.417Z,57.57
2023-05-25T11:45:41.328Z,58.14
2023-05-25T11:46:41.396Z,57.79
2023-05-25T11:47:41.360Z,57.15
2023-05-25T11:48:41.308Z,57.18
2023-05-25T11:49:41.293Z,57.24
2023-05-25T11:50:41.281Z,56.66
2023-05-25T11:51:41.266Z,57.70
2023-05-25T11:52:41.269Z,58.53
2023-05-25T11:53:41.270Z,59.60
2023-05-25T11:54:41.297Z,58.57
2023-05-25T11:55:41.268Z,58.44
2023-05-25T11:56:41.250Z,59.59
2023-05-25T11:57:41.234Z,56.58
2023-05-25T11:58:41.225Z,57.06
2023-05-25T11:59:41.182Z,55.63
2023-05-25T12:00:41.220Z,56.35
2023-05-25T12:01:41.168Z,55.43
2023-05-25T12:02:41.356Z,55.58
2023-05-25T12:03:41.215Z,58.64
2023-05-25T12:04:41.295Z,58.27
2023-05-25T12:05:41.351Z,58.27
2023-05-25T12:06:41.213Z,58.07
2023-05-25T12:07:41.130Z,57.26
2023-05-25T12:08:41.138Z,57.46
2023-05-25T12:09:41.085Z,58.27
2023-05-25T12:10:41.070Z,57.90
2023-05-25T12:11:41.074Z,57.70
2023-05-25T12:12:41.051Z,57.59
2023-05-25T12:13:41.053Z,56.96
2023-05-25T12:14:41.032Z,57.46
2023-05-25T12:15:41.063Z,57.97
2023-05-25T12:16:41.126Z,58.80
2023-05-25T12:17:41.017Z,59.10
2023-05-25T12:18:40.975Z,59.67
2023-05-25T12:19:40.974Z,57.74
2023-05-25T12:20:41.025Z,57.81
2023-05-25T12:21:41.021Z,57.79
2023-05-25T12:22:40.965Z,58.49
2023-05-25T12:23:40.943Z,57.51
2023-05-25T12:24:40.933Z,58.24
2023-05-25T12:25:50.310Z,59.38
2023-05-25T12:26:41.905Z,59.80
2023-05-25T12:27:40.946Z,58.53
2023-05-25T12:28:40.892Z,59.86
2023-05-25T12:29:40.880Z,60.77
2023-05-25T12:30:40.900Z,61.20
2023-05-25T12:31:40.872Z,61.67
2023-05-25T12:32:40.918Z,60.06
2023-05-25T12:33:40.825Z,59.94
2023-05-25T12:34:40.844Z,59.98
2023-05-25T12:35:40.877Z,58.67
2023-05-25T12:36:40.810Z,57.94
2023-05-25T12:37:40.784Z,57.74
2023-05-25T12:38:40.777Z,57.84
2023-05-25T12:39:40.771Z,57.61
2023-05-25T12:40:40.819Z,58.11
2023-05-25T12:41:40.742Z,57.41
2023-05-25T12:42:40.744Z,58.64
2023-05-25T12:43:40.720Z,59.05
2023-05-25T12:44:40.741Z,58.31
2023-05-25T12:45:40.705Z,57.64
2023-05-25T12:46:40.828Z,57.74
2023-05-25T12:47:40.710Z,58.11
2023-05-25T12:48:40.680Z,57.61
2023-05-25T12:49:40.670Z,57.21
2023-05-25T12:50:41.043Z,58.01
2023-05-25T12:51:40.644Z,57.11
2023-05-25T12:52:40.667Z,57.04